Flight Track Log - Related Links

Times and Time Zones

All times are in EDT time to prevent confusion due to time zone crossing. See the G-VROY flight status page for this flight to view local times or setup timezone preferences in your user account.

Time Position Orientation Groundspeed Altitude Reporting Facility
EDT Latitude Longitude Course Direction KTS MPH feet Rate Location/Type
Wed 12:50:00 PM 13.0666 -59.5000 353° North -1  Level FlightAware Direct Aircraft Datalink
Wed 02:13:15 PM 13.0942 -59.5033 332° Northwest  Level Estimated
Wed 02:14:15 PM 13.1725 -59.5467 332° Northwest  Level Estimated
Wed 02:15:15 PM 13.2507 -59.5902 332° Northwest  Level Estimated
Wed 02:15:58 PM 19.7722 -63.3382 151° Southeast  Level Estimated
Wed 02:17:15 PM 19.6726 -63.2788 151° Southeast  Level Estimated
Wed 02:18:15 PM 19.5950 -63.2326 151° Southeast  Level Estimated
Wed 02:19:15 PM 19.5174 -63.1864 151° Southeast  Level Estimated
Wed 02:20:15 PM 19.4398 -63.1402 151° Southeast  Level Estimated
Wed 02:21:15 PM 19.3622 -63.0941 151° Southeast  Level Estimated
Wed 02:22:15 PM 19.2846 -63.0481 151° Southeast  Level Estimated
Wed 02:23:15 PM 19.2069 -63.0020 151° Southeast  Level Estimated
Wed 02:24:15 PM 19.1293 -62.9561 151° Southeast  Level Estimated
Wed 02:25:15 PM 19.0516 -62.9101 151° Southeast  Level Estimated
Wed 02:26:15 PM 18.9739 -62.8643 151° Southeast  Level Estimated
Wed 02:27:15 PM 18.8963 -62.8184 151° Southeast  Level Estimated
Wed 02:28:15 PM 18.8186 -62.7726 151° Southeast  Level Estimated
Wed 02:29:15 PM 18.7409 -62.7268 151° Southeast  Level Estimated
Wed 02:30:15 PM 18.6631 -62.6811 151° Southeast  Level Estimated
Wed 02:31:15 PM 18.5854 -62.6354 151° Southeast  Level Estimated
Wed 02:32:15 PM 18.5077 -62.5898 151° Southeast  Level Estimated
Wed 02:33:15 PM 18.4299 -62.5442 151° Southeast  Level Estimated
Wed 02:34:15 PM 18.3521 -62.4987 151° Southeast  Level Estimated
Wed 02:35:15 PM 18.2744 -62.4532 151° Southeast  Level Estimated
Wed 02:36:15 PM 18.1966 -62.4077 151° Southeast  Level Estimated
Wed 02:37:15 PM 18.1188 -62.3623 151° Southeast  Level Estimated
Wed 02:38:15 PM 18.0410 -62.3169 151° Southeast  Level Estimated
Wed 02:39:15 PM 17.9632 -62.2715 151° Southeast  Level Estimated
Wed 02:40:15 PM 17.8853 -62.2262 151° Southeast  Level Estimated
Wed 02:41:15 PM 17.8075 -62.1809 151° Southeast  Level Estimated
Wed 02:42:15 PM 17.7296 -62.1357 151° Southeast  Level Estimated
Wed 02:43:15 PM 17.6518 -62.0905 151° Southeast  Level Estimated
Wed 02:44:15 PM 17.5739 -62.0454 151° Southeast  Level Estimated
Wed 02:45:15 PM 17.4960 -62.0002 151° Southeast  Level Estimated
Wed 02:46:15 PM 17.4181 -61.9552 151° Southeast  Level Estimated
Wed 02:47:15 PM 17.3402 -61.9101 151° Southeast  Level Estimated
Wed 02:48:15 PM 17.2623 -61.8651 151° Southeast  Level Estimated
Wed 02:49:15 PM 17.1990 -61.8286 151° Southeast  Level Estimated
Wed 02:50:15 PM 17.1357 -61.7921 331° Northwest  Level Estimated
Wed 02:51:15 PM 17.1990 -61.8285 151° Southeast  Level Estimated
Wed 02:52:15 PM 17.1357 -61.7921 331° Northwest  Level Estimated
Wed 02:53:15 PM 17.2136 -61.8370 151° Southeast  Level Estimated
Wed 02:54:15 PM 17.1357 -61.7921 331° Northwest  Level Estimated
Wed 02:55:15 PM 17.2136 -61.8370 151° Southeast  Level Estimated
Wed 02:56:15 PM 17.1357 -61.7921 331° Northwest  Level Estimated
Wed 02:57:15 PM 17.2136 -61.8370 151° Southeast  Level Estimated
Wed 02:58:15 PM 17.1357 -61.7921 331° Northwest  Level Estimated
Wed 02:59:15 PM 17.2136 -61.8370 151° Southeast  Level Estimated
Wed 03:00:15 PM 17.1357 -61.7921 331° Northwest  Level Estimated
Wed 03:01:15 PM 17.2136 -61.8370 151° Southeast  Level Estimated
Wed 03:02:15 PM 17.1357 -61.7921 331° Northwest  Level Estimated
Wed 03:03:15 PM 17.2136 -61.8370 331° Northwest  Level Estimated

Login

Don't have an account? Register now (free) for customized features, flight alerts, and more!